sensor_id;sensor_type;location;lat;lon;timestamp;temperature;humidity
28767;DHT22;15921;52.034;20.650;2023-06-26T00:00:20;14.80;99.90
28767;DHT22;15921;52.034;20.650;2023-06-26T00:02:46;14.80;99.90
28767;DHT22;15921;52.034;20.650;2023-06-26T00:05:11;14.70;99.90
28767;DHT22;15921;52.034;20.650;2023-06-26T00:07:39;14.70;99.90
28767;DHT22;15921;52.034;20.650;2023-06-26T00:10:05;14.70;99.90
28767;DHT22;15921;52.034;20.650;2023-06-26T00:12:31;14.60;99.90
28767;DHT22;15921;52.034;20.650;2023-06-26T00:14:58;14.50;99.90
28767;DHT22;15921;52.034;20.650;2023-06-26T00:17:23;14.40;99.90
28767;DHT22;15921;52.034;20.650;2023-06-26T00:19:50;14.30;99.90
28767;DHT22;15921;52.034;20.650;2023-06-26T00:22:16;14.30;99.90
28767;DHT22;15921;52.034;20.650;2023-06-26T00:24:42;14.30;99.90
28767;DHT22;15921;52.034;20.650;2023-06-26T00:27:07;14.20;99.90
28767;DHT22;15921;52.034;20.650;2023-06-26T00:29:33;14.20;99.90
28767;DHT22;15921;52.034;20.650;2023-06-26T00:31:59;14.20;99.90
28767;DHT22;15921;52.034;20.650;2023-06-26T00:34:25;14.20;99.90
28767;DHT22;15921;52.034;20.650;2023-06-26T00:36:50;14.10;99.90
28767;DHT22;15921;52.034;20.650;2023-06-26T00:39:16;14.00;99.90
28767;DHT22;15921;52.034;20.650;2023-06-26T00:41:41;14.00;99.90
28767;DHT22;15921;52.034;20.650;2023-06-26T00:44:07;13.90;99.90
28767;DHT22;15921;52.034;20.650;2023-06-26T00:46:34;13.90;99.90
28767;DHT22;15921;52.034;20.650;2023-06-26T00:49:02;13.90;99.90
28767;DHT22;15921;52.034;20.650;2023-06-26T00:51:30;13.90;99.90
28767;DHT22;15921;52.034;20.650;2023-06-26T00:53:56;13.90;99.90
28767;DHT22;15921;52.034;20.650;2023-06-26T00:56:23;13.80;99.90
28767;DHT22;15921;52.034;20.650;2023-06-26T00:58:49;13.80;99.90
28767;DHT22;15921;52.034;20.650;2023-06-26T01:01:15;13.80;99.90
28767;DHT22;15921;52.034;20.650;2023-06-26T01:03:49;13.80;99.90
28767;DHT22;15921;52.034;20.650;2023-06-26T01:06:20;13.70;99.90
28767;DHT22;15921;52.034;20.650;2023-06-26T01:08:47;13.70;99.90
28767;DHT22;15921;52.034;20.650;2023-06-26T01:11:14;13.70;99.90
28767;DHT22;15921;52.034;20.650;2023-06-26T01:13:41;13.70;99.90
28767;DHT22;15921;52.034;20.650;2023-06-26T01:16:08;13.80;99.90
28767;DHT22;15921;52.034;20.650;2023-06-26T01:18:35;13.80;99.90
28767;DHT22;15921;52.034;20.650;2023-06-26T01:21:03;13.80;99.90
28767;DHT22;15921;52.034;20.650;2023-06-26T01:24:02;13.70;99.90
28767;DHT22;15921;52.034;20.650;2023-06-26T01:26:31;13.70;99.90
28767;DHT22;15921;52.034;20.650;2023-06-26T01:29:02;13.60;99.90
28767;DHT22;15921;52.034;20.650;2023-06-26T01:31:29;13.60;99.90
28767;DHT22;15921;52.034;20.650;2023-06-26T01:33:58;13.60;99.90
28767;DHT22;15921;52.034;20.650;2023-06-26T01:36:24;13.60;99.90
28767;DHT22;15921;52.034;20.650;2023-06-26T01:38:50;13.70;99.90
28767;DHT22;15921;52.034;20.650;2023-06-26T01:41:17;13.70;99.90
28767;DHT22;15921;52.034;20.650;2023-06-26T01:46:54;13.70;99.90
28767;DHT22;15921;52.034;20.650;2023-06-26T01:52:43;13.50;99.90
28767;DHT22;15921;52.034;20.650;2023-06-26T01:55:31;13.40;99.90
28767;DHT22;15921;52.034;20.650;2023-06-26T01:57:59;13.30;99.90
28767;DHT22;15921;52.034;20.650;2023-06-26T02:00:25;13.20;99.90
28767;DHT22;15921;52.034;20.650;2023-06-26T02:02:52;13.20;99.90
28767;DHT22;15921;52.034;20.650;2023-06-26T02:05:18;13.20;99.90
28767;DHT22;15921;52.034;20.650;2023-06-26T02:07:43;13.20;99.90
28767;DHT22;15921;52.034;20.650;2023-06-26T02:10:09;13.10;99.90
28767;DHT22;15921;52.034;20.650;2023-06-26T02:12:36;13.10;99.90
28767;DHT22;15921;52.034;20.650;2023-06-26T02:15:02;13.10;99.90
28767;DHT22;15921;52.034;20.650;2023-06-26T02:17:28;13.00;99.90
28767;DHT22;15921;52.034;20.650;2023-06-26T02:19:54;13.00;99.90
28767;DHT22;15921;52.034;20.650;2023-06-26T02:22:19;13.00;99.90
28767;DHT22;15921;52.034;20.650;2023-06-26T02:24:46;13.10;99.90
28767;DHT22;15921;52.034;20.650;2023-06-26T02:27:11;13.10;99.90
28767;DHT22;15921;52.034;20.650;2023-06-26T02:29:38;13.10;99.90
28767;DHT22;15921;52.034;20.650;2023-06-26T02:32:04;13.10;99.90
28767;DHT22;15921;52.034;20.650;2023-06-26T02:34:30;13.00;99.90
28767;DHT22;15921;52.034;20.650;2023-06-26T02:36:56;13.00;99.90
28767;DHT22;15921;52.034;20.650;2023-06-26T02:39:22;13.00;99.90
28767;DHT22;15921;52.034;20.650;2023-06-26T02:41:48;13.00;99.90
28767;DHT22;15921;52.034;20.650;2023-06-26T02:44:13;13.00;99.90
28767;DHT22;15921;52.034;20.650;2023-06-26T02:46:40;13.00;99.90
28767;DHT22;15921;52.034;20.650;2023-06-26T02:49:06;13.00;99.90
28767;DHT22;15921;52.034;20.650;2023-06-26T02:51:33;13.00;99.90
28767;DHT22;15921;52.034;20.650;2023-06-26T02:53:59;13.00;99.90
28767;DHT22;15921;52.034;20.650;2023-06-26T02:56:25;13.00;99.90
28767;DHT22;15921;52.034;20.650;2023-06-26T02:58:54;13.10;99.90
28767;DHT22;15921;52.034;20.650;2023-06-26T03:01:20;13.00;99.90
28767;DHT22;15921;52.034;20.650;2023-06-26T03:03:47;13.10;99.90
28767;DHT22;15921;52.034;20.650;2023-06-26T03:06:13;13.10;99.90
28767;DHT22;15921;52.034;20.650;2023-06-26T03:08:39;13.20;99.90
28767;DHT22;15921;52.034;20.650;2023-06-26T03:11:08;13.20;99.90
28767;DHT22;15921;52.034;20.650;2023-06-26T03:13:35;13.30;99.90
28767;DHT22;15921;52.034;20.650;2023-06-26T03:16:01;13.30;99.90
28767;DHT22;15921;52.034;20.650;2023-06-26T03:18:27;13.40;99.90
28767;DHT22;15921;52.034;20.650;2023-06-26T03:20:55;13.40;99.90
28767;DHT22;15921;52.034;20.650;2023-06-26T03:23:21;13.50;99.90
28767;DHT22;15921;52.034;20.650;2023-06-26T03:25:48;13.50;99.90
28767;DHT22;15921;52.034;20.650;2023-06-26T03:28:14;13.60;99.90
28767;DHT22;15921;52.034;20.650;2023-06-26T03:30:40;13.70;99.90
28767;DHT22;15921;52.034;20.650;2023-06-26T03:33:05;13.80;99.90
28767;DHT22;15921;52.034;20.650;2023-06-26T03:35:31;13.90;99.90
28767;DHT22;15921;52.034;20.650;2023-06-26T03:37:58;13.90;99.90
28767;DHT22;15921;52.034;20.650;2023-06-26T03:40:23;14.00;99.90
28767;DHT22;15921;52.034;20.650;2023-06-26T03:42:50;14.10;99.90
28767;DHT22;15921;52.034;20.650;2023-06-26T03:45:15;14.30;99.90
28767;DHT22;15921;52.034;20.650;2023-06-26T03:47:41;14.40;99.90
28767;DHT22;15921;52.034;20.650;2023-06-26T03:50:07;14.50;99.90
28767;DHT22;15921;52.034;20.650;2023-06-26T03:52:33;14.50;99.90
28767;DHT22;15921;52.034;20.650;2023-06-26T03:54:59;14.70;99.90
28767;DHT22;15921;52.034;20.650;2023-06-26T03:57:25;14.70;99.90
28767;DHT22;15921;52.034;20.650;2023-06-26T03:59:51;14.90;99.90
28767;DHT22;15921;52.034;20.650;2023-06-26T04:02:17;15.00;99.90
28767;DHT22;15921;52.034;20.650;2023-06-26T04:04:43;15.10;99.90
28767;DHT22;15921;52.034;20.650;2023-06-26T04:07:08;15.20;99.90
28767;DHT22;15921;52.034;20.650;2023-06-26T04:09:34;15.40;99.90
28767;DHT22;15921;52.034;20.650;2023-06-26T04:12:00;15.50;99.90
28767;DHT22;15921;52.034;20.650;2023-06-26T04:14:26;15.50;99.90
28767;DHT22;15921;52.034;20.650;2023-06-26T04:16:52;15.70;99.90
28767;DHT22;15921;52.034;20.650;2023-06-26T04:19:18;15.80;99.90
28767;DHT22;15921;52.034;20.650;2023-06-26T04:21:43;15.90;99.90
28767;DHT22;15921;52.034;20.650;2023-06-26T04:24:09;16.10;99.90
28767;DHT22;15921;52.034;20.650;2023-06-26T04:26:35;16.20;99.90
28767;DHT22;15921;52.034;20.650;2023-06-26T04:29:01;16.30;99.90
28767;DHT22;15921;52.034;20.650;2023-06-26T04:31:26;16.40;99.90
28767;DHT22;15921;52.034;20.650;2023-06-26T04:33:52;16.60;99.90
28767;DHT22;15921;52.034;20.650;2023-06-26T04:36:20;16.70;99.90
28767;DHT22;15921;52.034;20.650;2023-06-26T04:38:46;16.80;99.90
28767;DHT22;15921;52.034;20.650;2023-06-26T04:41:13;16.90;99.90
28767;DHT22;15921;52.034;20.650;2023-06-26T04:43:39;17.00;99.90
28767;DHT22;15921;52.034;20.650;2023-06-26T04:46:05;17.10;99.90
28767;DHT22;15921;52.034;20.650;2023-06-26T04:48:32;17.20;99.90
28767;DHT22;15921;52.034;20.650;2023-06-26T04:50:57;17.40;99.90
28767;DHT22;15921;52.034;20.650;2023-06-26T04:53:24;17.50;99.90
28767;DHT22;15921;52.034;20.650;2023-06-26T04:55:51;17.60;99.90
28767;DHT22;15921;52.034;20.650;2023-06-26T04:58:17;17.80;99.90
28767;DHT22;15921;52.034;20.650;2023-06-26T05:00:43;17.90;99.90
28767;DHT22;15921;52.034;20.650;2023-06-26T05:03:12;18.00;99.90
28767;DHT22;15921;52.034;20.650;2023-06-26T05:05:38;18.20;99.90
28767;DHT22;15921;52.034;20.650;2023-06-26T05:08:24;18.30;99.90
28767;DHT22;15921;52.034;20.650;2023-06-26T05:10:52;18.40;99.90
28767;DHT22;15921;52.034;20.650;2023-06-26T05:13:19;18.60;99.90
28767;DHT22;15921;52.034;20.650;2023-06-26T05:15:46;18.70;99.90
28767;DHT22;15921;52.034;20.650;2023-06-26T05:18:12;18.90;99.90
28767;DHT22;15921;52.034;20.650;2023-06-26T05:20:38;19.00;99.90
28767;DHT22;15921;52.034;20.650;2023-06-26T05:23:04;19.20;99.90
28767;DHT22;15921;52.034;20.650;2023-06-26T05:25:31;19.30;99.90
28767;DHT22;15921;52.034;20.650;2023-06-26T05:27:58;19.50;99.90
28767;DHT22;15921;52.034;20.650;2023-06-26T05:30:27;19.60;99.90
28767;DHT22;15921;52.034;20.650;2023-06-26T05:32:53;19.70;99.90
28767;DHT22;15921;52.034;20.650;2023-06-26T05:35:23;19.80;99.90
28767;DHT22;15921;52.034;20.650;2023-06-26T05:37:49;20.00;99.90
28767;DHT22;15921;52.034;20.650;2023-06-26T05:40:16;20.10;99.90
28767;DHT22;15921;52.034;20.650;2023-06-26T05:42:43;20.20;99.90
28767;DHT22;15921;52.034;20.650;2023-06-26T05:45:09;20.40;99.90
28767;DHT22;15921;52.034;20.650;2023-06-26T05:47:36;20.50;99.90
28767;DHT22;15921;52.034;20.650;2023-06-26T05:50:03;20.60;99.90
28767;DHT22;15921;52.034;20.650;2023-06-26T05:52:29;20.80;99.90
28767;DHT22;15921;52.034;20.650;2023-06-26T05:54:56;20.90;99.90
28767;DHT22;15921;52.034;20.650;2023-06-26T05:57:27;21.00;99.90
28767;DHT22;15921;52.034;20.650;2023-06-26T05:59:53;21.10;99.90
28767;DHT22;15921;52.034;20.650;2023-06-26T06:02:19;21.10;99.90
28767;DHT22;15921;52.034;20.650;2023-06-26T06:04:45;21.20;99.90
28767;DHT22;15921;52.034;20.650;2023-06-26T06:07:11;21.40;99.90
28767;DHT22;15921;52.034;20.650;2023-06-26T06:09:37;21.50;99.90
28767;DHT22;15921;52.034;20.650;2023-06-26T06:12:05;21.60;99.90
28767;DHT22;15921;52.034;20.650;2023-06-26T06:14:34;21.70;99.90
28767;DHT22;15921;52.034;20.650;2023-06-26T06:17:00;21.80;99.90
28767;DHT22;15921;52.034;20.650;2023-06-26T06:19:26;22.00;99.90
28767;DHT22;15921;52.034;20.650;2023-06-26T06:21:52;22.00;99.90
28767;DHT22;15921;52.034;20.650;2023-06-26T06:24:18;22.10;99.90
28767;DHT22;15921;52.034;20.650;2023-06-26T06:26:43;22.20;99.90
28767;DHT22;15921;52.034;20.650;2023-06-26T06:29:09;22.40;99.90
28767;DHT22;15921;52.034;20.650;2023-06-26T06:31:35;22.50;99.90
28767;DHT22;15921;52.034;20.650;2023-06-26T06:34:01;22.60;99.10
28767;DHT22;15921;52.034;20.650;2023-06-26T06:36:27;22.70;98.90
28767;DHT22;15921;52.034;20.650;2023-06-26T06:38:53;22.80;98.30
28767;DHT22;15921;52.034;20.650;2023-06-26T06:41:20;22.90;97.70
28767;DHT22;15921;52.034;20.650;2023-06-26T06:43:46;23.00;97.10
28767;DHT22;15921;52.034;20.650;2023-06-26T06:46:11;23.10;95.60
28767;DHT22;15921;52.034;20.650;2023-06-26T06:48:37;23.20;94.40
28767;DHT22;15921;52.034;20.650;2023-06-26T06:51:03;23.20;93.70
28767;DHT22;15921;52.034;20.650;2023-06-26T06:53:29;23.40;93.20
28767;DHT22;15921;52.034;20.650;2023-06-26T06:55:54;23.50;92.50
28767;DHT22;15921;52.034;20.650;2023-06-26T06:58:20;23.70;91.70
28767;DHT22;15921;52.034;20.650;2023-06-26T07:00:46;23.90;91.00
28767;DHT22;15921;52.034;20.650;2023-06-26T07:03:11;24.20;90.00
28767;DHT22;15921;52.034;20.650;2023-06-26T07:05:38;24.60;87.00
28767;DHT22;15921;52.034;20.650;2023-06-26T07:08:03;25.10;86.20
28767;DHT22;15921;52.034;20.650;2023-06-26T07:10:30;25.30;83.10
28767;DHT22;15921;52.034;20.650;2023-06-26T07:12:56;25.40;80.50
28767;DHT22;15921;52.034;20.650;2023-06-26T07:15:22;25.30;79.80
28767;DHT22;15921;52.034;20.650;2023-06-26T07:17:47;25.10;78.80
28767;DHT22;15921;52.034;20.650;2023-06-26T07:20:13;25.10;79.50
28767;DHT22;15921;52.034;20.650;2023-06-26T07:22:42;24.90;81.60
28767;DHT22;15921;52.034;20.650;2023-06-26T07:25:10;24.90;81.10
28767;DHT22;15921;52.034;20.650;2023-06-26T07:27:40;24.80;78.40
28767;DHT22;15921;52.034;20.650;2023-06-26T07:30:07;24.90;78.10
28767;DHT22;15921;52.034;20.650;2023-06-26T07:32:37;24.90;78.90
28767;DHT22;15921;52.034;20.650;2023-06-26T07:35:03;25.00;79.40
28767;DHT22;15921;52.034;20.650;2023-06-26T07:37:29;24.90;78.70
28767;DHT22;15921;52.034;20.650;2023-06-26T07:39:54;24.80;78.80
28767;DHT22;15921;52.034;20.650;2023-06-26T07:42:20;24.70;79.80
28767;DHT22;15921;52.034;20.650;2023-06-26T07:44:46;24.50;80.10
28767;DHT22;15921;52.034;20.650;2023-06-26T07:47:12;24.50;80.60
28767;DHT22;15921;52.034;20.650;2023-06-26T07:49:39;24.50;81.40
28767;DHT22;15921;52.034;20.650;2023-06-26T07:52:05;24.60;80.60
28767;DHT22;15921;52.034;20.650;2023-06-26T07:54:31;24.70;79.40
28767;DHT22;15921;52.034;20.650;2023-06-26T07:56:58;24.80;78.70
28767;DHT22;15921;52.034;20.650;2023-06-26T07:59:25;24.90;78.50
28767;DHT22;15921;52.034;20.650;2023-06-26T08:01:53;24.90;77.80
28767;DHT22;15921;52.034;20.650;2023-06-26T08:04:19;24.90;76.70
28767;DHT22;15921;52.034;20.650;2023-06-26T08:06:48;25.00;77.80
28767;DHT22;15921;52.034;20.650;2023-06-26T08:09:14;25.20;76.80
28767;DHT22;15921;52.034;20.650;2023-06-26T08:11:39;25.30;75.90
28767;DHT22;15921;52.034;20.650;2023-06-26T08:14:05;25.40;74.90
28767;DHT22;15921;52.034;20.650;2023-06-26T08:16:31;25.40;74.00
28767;DHT22;15921;52.034;20.650;2023-06-26T08:18:56;25.40;74.10
28767;DHT22;15921;52.034;20.650;2023-06-26T08:21:22;25.40;72.70
28767;DHT22;15921;52.034;20.650;2023-06-26T08:23:48;25.40;71.30
28767;DHT22;15921;52.034;20.650;2023-06-26T08:26:13;25.50;71.70
28767;DHT22;15921;52.034;20.650;2023-06-26T08:28:39;25.60;71.10
28767;DHT22;15921;52.034;20.650;2023-06-26T08:31:05;25.60;70.60
28767;DHT22;15921;52.034;20.650;2023-06-26T08:33:31;25.60;70.60
28767;DHT22;15921;52.034;20.650;2023-06-26T08:35:56;25.70;70.40
28767;DHT22;15921;52.034;20.650;2023-06-26T08:38:22;25.70;69.50
28767;DHT22;15921;52.034;20.650;2023-06-26T08:40:47;25.70;69.20
28767;DHT22;15921;52.034;20.650;2023-06-26T08:43:13;25.70;67.90
28767;DHT22;15921;52.034;20.650;2023-06-26T08:45:39;25.80;68.80
28767;DHT22;15921;52.034;20.650;2023-06-26T08:48:07;25.80;67.90
28767;DHT22;15921;52.034;20.650;2023-06-26T08:50:34;25.80;67.40
28767;DHT22;15921;52.034;20.650;2023-06-26T08:56:03;26.00;60.50
28767;DHT22;15921;52.034;20.650;2023-06-26T08:58:30;26.00;60.00
28767;DHT22;15921;52.034;20.650;2023-06-26T09:00:56;26.10;60.20
28767;DHT22;15921;52.034;20.650;2023-06-26T09:03:24;26.20;60.70
28767;DHT22;15921;52.034;20.650;2023-06-26T09:05:51;26.30;59.20
28767;DHT22;15921;52.034;20.650;2023-06-26T09:08:17;26.30;59.00
28767;DHT22;15921;52.034;20.650;2023-06-26T09:10:42;26.30;59.50
28767;DHT22;15921;52.034;20.650;2023-06-26T09:13:08;26.40;60.10
28767;DHT22;15921;52.034;20.650;2023-06-26T09:15:39;26.50;60.10
28767;DHT22;15921;52.034;20.650;2023-06-26T09:18:07;26.50;60.00
28767;DHT22;15921;52.034;20.650;2023-06-26T09:20:33;26.50;59.60
28767;DHT22;15921;52.034;20.650;2023-06-26T09:23:00;26.60;59.70
28767;DHT22;15921;52.034;20.650;2023-06-26T09:25:26;26.70;59.60
28767;DHT22;15921;52.034;20.650;2023-06-26T09:27:53;26.80;59.90
28767;DHT22;15921;52.034;20.650;2023-06-26T09:30:19;26.70;59.90
28767;DHT22;15921;52.034;20.650;2023-06-26T09:32:45;26.60;60.40
28767;DHT22;15921;52.034;20.650;2023-06-26T09:35:11;26.60;60.60
28767;DHT22;15921;52.034;20.650;2023-06-26T09:37:37;26.70;60.70
28767;DHT22;15921;52.034;20.650;2023-06-26T09:40:03;26.80;60.80
28767;DHT22;15921;52.034;20.650;2023-06-26T09:42:33;27.00;59.80
28767;DHT22;15921;52.034;20.650;2023-06-26T09:44:59;27.20;59.10
28767;DHT22;15921;52.034;20.650;2023-06-26T09:47:25;27.40;58.90
28767;DHT22;15921;52.034;20.650;2023-06-26T09:49:50;27.40;58.80
28767;DHT22;15921;52.034;20.650;2023-06-26T09:52:18;27.30;58.00
28767;DHT22;15921;52.034;20.650;2023-06-26T09:54:45;27.20;58.30
28767;DHT22;15921;52.034;20.650;2023-06-26T09:57:13;27.30;58.30
28767;DHT22;15921;52.034;20.650;2023-06-26T09:59:39;27.40;56.30
28767;DHT22;15921;52.034;20.650;2023-06-26T10:02:05;27.50;55.00
28767;DHT22;15921;52.034;20.650;2023-06-26T10:04:32;27.50;54.50
28767;DHT22;15921;52.034;20.650;2023-06-26T10:07:01;27.60;55.40
28767;DHT22;15921;52.034;20.650;2023-06-26T10:09:28;27.80;56.30
28767;DHT22;15921;52.034;20.650;2023-06-26T10:12:03;27.80;55.60
28767;DHT22;15921;52.034;20.650;2023-06-26T10:14:34;27.70;53.90
28767;DHT22;15921;52.034;20.650;2023-06-26T10:17:04;27.70;54.00
28767;DHT22;15921;52.034;20.650;2023-06-26T10:19:32;27.60;54.10
28767;DHT22;15921;52.034;20.650;2023-06-26T10:21:59;27.50;54.50
28767;DHT22;15921;52.034;20.650;2023-06-26T10:24:27;27.50;54.80
28767;DHT22;15921;52.034;20.650;2023-06-26T10:27:01;27.60;55.80
28767;DHT22;15921;52.034;20.650;2023-06-26T10:29:29;27.70;55.10
28767;DHT22;15921;52.034;20.650;2023-06-26T10:31:57;27.70;56.00
28767;DHT22;15921;52.034;20.650;2023-06-26T10:34:24;27.70;54.60
28767;DHT22;15921;52.034;20.650;2023-06-26T10:37:00;27.70;53.00
28767;DHT22;15921;52.034;20.650;2023-06-26T10:39:27;27.60;53.70
28767;DHT22;15921;52.034;20.650;2023-06-26T10:41:55;27.80;54.50
28767;DHT22;15921;52.034;20.650;2023-06-26T10:44:21;27.90;54.10
28767;DHT22;15921;52.034;20.650;2023-06-26T10:46:54;28.10;55.00
28767;DHT22;15921;52.034;20.650;2023-06-26T10:49:25;28.30;53.90
28767;DHT22;15921;52.034;20.650;2023-06-26T10:51:52;28.50;54.20
28767;DHT22;15921;52.034;20.650;2023-06-26T10:54:20;28.70;53.10
28767;DHT22;15921;52.034;20.650;2023-06-26T10:56:47;28.90;53.30
28767;DHT22;15921;52.034;20.650;2023-06-26T11:01:44;29.00;53.60
28767;DHT22;15921;52.034;20.650;2023-06-26T11:04:12;29.10;53.10
28767;DHT22;15921;52.034;20.650;2023-06-26T11:06:40;29.30;52.80
28767;DHT22;15921;52.034;20.650;2023-06-26T11:09:06;29.40;52.90
28767;DHT22;15921;52.034;20.650;2023-06-26T11:14:18;29.30;52.20
28767;DHT22;15921;52.034;20.650;2023-06-26T11:16:44;29.20;52.60
28767;DHT22;15921;52.034;20.650;2023-06-26T11:19:10;29.20;52.20
28767;DHT22;15921;52.034;20.650;2023-06-26T11:21:38;29.30;51.80
28767;DHT22;15921;52.034;20.650;2023-06-26T11:24:07;29.40;52.00
28767;DHT22;15921;52.034;20.650;2023-06-26T11:26:44;29.50;51.80
28767;DHT22;15921;52.034;20.650;2023-06-26T11:29:11;29.60;50.50
28767;DHT22;15921;52.034;20.650;2023-06-26T11:31:38;29.70;51.30
28767;DHT22;15921;52.034;20.650;2023-06-26T11:34:09;29.60;49.70
28767;DHT22;15921;52.034;20.650;2023-06-26T11:36:37;29.70;49.70
28767;DHT22;15921;52.034;20.650;2023-06-26T11:39:05;29.70;51.00
28767;DHT22;15921;52.034;20.650;2023-06-26T11:41:33;29.80;50.40
28767;DHT22;15921;52.034;20.650;2023-06-26T11:44:03;29.90;49.40
28767;DHT22;15921;52.034;20.650;2023-06-26T11:46:31;30.00;49.50
28767;DHT22;15921;52.034;20.650;2023-06-26T11:48:57;30.00;49.10
28767;DHT22;15921;52.034;20.650;2023-06-26T11:51:23;30.00;49.10
28767;DHT22;15921;52.034;20.650;2023-06-26T11:53:50;30.20;49.60
28767;DHT22;15921;52.034;20.650;2023-06-26T11:56:16;30.50;50.30
28767;DHT22;15921;52.034;20.650;2023-06-26T11:58:56;30.60;49.40
28767;DHT22;15921;52.034;20.650;2023-06-26T12:01:23;30.70;49.30
28767;DHT22;15921;52.034;20.650;2023-06-26T12:03:50;30.90;49.20
28767;DHT22;15921;52.034;20.650;2023-06-26T12:06:16;31.40;49.40
28767;DHT22;15921;52.034;20.650;2023-06-26T12:08:43;32.00;48.50
28767;DHT22;15921;52.034;20.650;2023-06-26T12:11:09;32.30;47.50
28767;DHT22;15921;52.034;20.650;2023-06-26T12:13:35;31.90;46.90
28767;DHT22;15921;52.034;20.650;2023-06-26T12:16:01;32.50;46.60
28767;DHT22;15921;52.034;20.650;2023-06-26T12:18:34;34.20;45.50
28767;DHT22;15921;52.034;20.650;2023-06-26T12:21:00;36.40;44.40
28767;DHT22;15921;52.034;20.650;2023-06-26T12:23:41;38.40;42.60
28767;DHT22;15921;52.034;20.650;2023-06-26T12:26:17;40.30;40.50
28767;DHT22;15921;52.034;20.650;2023-06-26T12:28:44;42.00;36.80
28767;DHT22;15921;52.034;20.650;2023-06-26T12:31:17;43.10;35.50
28767;DHT22;15921;52.034;20.650;2023-06-26T12:33:45;43.60;33.90
28767;DHT22;15921;52.034;20.650;2023-06-26T12:36:14;43.90;33.30
28767;DHT22;15921;52.034;20.650;2023-06-26T12:38:45;44.60;33.20
28767;DHT22;15921;52.034;20.650;2023-06-26T12:41:13;45.30;31.60
28767;DHT22;15921;52.034;20.650;2023-06-26T12:43:42;45.60;31.10
28767;DHT22;15921;52.034;20.650;2023-06-26T12:46:08;45.80;30.80
28767;DHT22;15921;52.034;20.650;2023-06-26T12:48:42;44.70;31.80
28767;DHT22;15921;52.034;20.650;2023-06-26T12:51:16;45.30;30.70
28767;DHT22;15921;52.034;20.650;2023-06-26T12:53:42;46.20;30.80
28767;DHT22;15921;52.034;20.650;2023-06-26T12:56:09;47.00;30.00
28767;DHT22;15921;52.034;20.650;2023-06-26T12:58:36;47.40;29.60
28767;DHT22;15921;52.034;20.650;2023-06-26T13:01:08;47.70;29.30
28767;DHT22;15921;52.034;20.650;2023-06-26T13:03:40;48.40;28.60
28767;DHT22;15921;52.034;20.650;2023-06-26T13:06:06;49.00;28.60
28767;DHT22;15921;52.034;20.650;2023-06-26T13:08:31;48.80;28.10
28767;DHT22;15921;52.034;20.650;2023-06-26T13:10:57;48.60;28.20
28767;DHT22;15921;52.034;20.650;2023-06-26T13:13:23;48.60;28.00
28767;DHT22;15921;52.034;20.650;2023-06-26T13:15:49;48.40;27.80
28767;DHT22;15921;52.034;20.650;2023-06-26T13:18:15;48.30;27.60
28767;DHT22;15921;52.034;20.650;2023-06-26T13:20:41;48.10;27.60
28767;DHT22;15921;52.034;20.650;2023-06-26T13:23:06;48.50;27.70
28767;DHT22;15921;52.034;20.650;2023-06-26T13:25:33;49.00;27.40
28767;DHT22;15921;52.034;20.650;2023-06-26T13:27:58;49.00;27.10
28767;DHT22;15921;52.034;20.650;2023-06-26T13:30:24;48.60;27.20
28767;DHT22;15921;52.034;20.650;2023-06-26T13:32:50;48.70;27.10
28767;DHT22;15921;52.034;20.650;2023-06-26T13:35:16;47.60;27.30
28767;DHT22;15921;52.034;20.650;2023-06-26T13:37:42;47.50;27.50
28767;DHT22;15921;52.034;20.650;2023-06-26T13:40:08;48.00;27.70
28767;DHT22;15921;52.034;20.650;2023-06-26T13:42:35;48.50;27.50
28767;DHT22;15921;52.034;20.650;2023-06-26T13:45:04;48.80;27.30
28767;DHT22;15921;52.034;20.650;2023-06-26T13:47:30;49.40;27.30
28767;DHT22;15921;52.034;20.650;2023-06-26T13:49:56;50.40;27.10
28767;DHT22;15921;52.034;20.650;2023-06-26T13:52:21;50.70;26.40
28767;DHT22;15921;52.034;20.650;2023-06-26T13:54:47;50.60;26.30
28767;DHT22;15921;52.034;20.650;2023-06-26T13:57:13;50.70;26.50
28767;DHT22;15921;52.034;20.650;2023-06-26T13:59:39;50.60;26.10
28767;DHT22;15921;52.034;20.650;2023-06-26T14:02:05;50.50;25.90
28767;DHT22;15921;52.034;20.650;2023-06-26T14:04:32;50.80;25.80
28767;DHT22;15921;52.034;20.650;2023-06-26T14:06:58;51.00;25.80
28767;DHT22;15921;52.034;20.650;2023-06-26T14:09:24;50.70;26.10
28767;DHT22;15921;52.034;20.650;2023-06-26T14:11:49;50.50;25.80
28767;DHT22;15921;52.034;20.650;2023-06-26T14:14:15;50.10;25.80
28767;DHT22;15921;52.034;20.650;2023-06-26T14:16:41;50.60;25.70
28767;DHT22;15921;52.034;20.650;2023-06-26T14:19:07;51.30;25.60
28767;DHT22;15921;52.034;20.650;2023-06-26T14:21:33;51.40;24.90
28767;DHT22;15921;52.034;20.650;2023-06-26T14:24:01;51.10;25.10
28767;DHT22;15921;52.034;20.650;2023-06-26T14:26:27;51.10;25.40
28767;DHT22;15921;52.034;20.650;2023-06-26T14:28:55;50.70;25.30
28767;DHT22;15921;52.034;20.650;2023-06-26T14:31:20;49.90;25.50
28767;DHT22;15921;52.034;20.650;2023-06-26T14:33:46;49.10;25.60
28767;DHT22;15921;52.034;20.650;2023-06-26T14:36:12;47.70;26.40
28767;DHT22;15921;52.034;20.650;2023-06-26T14:38:38;47.00;26.40
28767;DHT22;15921;52.034;20.650;2023-06-26T14:41:03;46.50;26.70
28767;DHT22;15921;52.034;20.650;2023-06-26T14:43:29;46.80;26.70
28767;DHT22;15921;52.034;20.650;2023-06-26T14:45:54;47.40;26.60
28767;DHT22;15921;52.034;20.650;2023-06-26T14:48:20;48.00;26.10
28767;DHT22;15921;52.034;20.650;2023-06-26T14:50:46;48.20;25.90
28767;DHT22;15921;52.034;20.650;2023-06-26T14:53:12;48.00;26.30
28767;DHT22;15921;52.034;20.650;2023-06-26T14:55:37;47.90;26.40
28767;DHT22;15921;52.034;20.650;2023-06-26T14:58:03;47.10;26.30
28767;DHT22;15921;52.034;20.650;2023-06-26T15:00:29;46.50;26.50
28767;DHT22;15921;52.034;20.650;2023-06-26T15:02:54;46.10;26.70
28767;DHT22;15921;52.034;20.650;2023-06-26T15:05:20;46.10;26.20
28767;DHT22;15921;52.034;20.650;2023-06-26T15:07:47;46.30;26.20
28767;DHT22;15921;52.034;20.650;2023-06-26T15:10:13;46.80;25.90
28767;DHT22;15921;52.034;20.650;2023-06-26T15:12:38;47.10;25.70
28767;DHT22;15921;52.034;20.650;2023-06-26T15:15:05;47.40;25.80
28767;DHT22;15921;52.034;20.650;2023-06-26T15:17:33;47.40;25.90
28767;DHT22;15921;52.034;20.650;2023-06-26T15:19:59;47.40;26.00
28767;DHT22;15921;52.034;20.650;2023-06-26T15:22:26;47.50;26.10
28767;DHT22;15921;52.034;20.650;2023-06-26T15:24:52;47.70;26.00
28767;DHT22;15921;52.034;20.650;2023-06-26T15:27:18;48.10;25.70